Columbus Township, Michigan
Current Conditions -  °F | °C
As of 6:16 AM on Friday 28 Nov 2014 (Local Time) from KPHN Reporting Station
Clear Clear  
Wind Chill: -11°   Ceiling: Unl
Heat Index: -7°   Visibility: 10mi
Dew Point: -13°   Wind: 5mph
Humidity: 63%   Direction: 290°WNW
Pressure: 30.32"   Gusts: NA
Location:  42.856°N, 82.6757°W
Report Text: KPHN 281116Z AUTO 29004KT 10SM CLR M07/M13 A3032 RMK AO2
Loading
Personal Weather Stations






























Interactive Weather Map New forecast layout! Learn more

10-Day Weather Forecast

Advertisements
Track Severe Weather on mobile